Carnival Victory — 3FFL8 — position and weather

sailwx.info

Track history (hours):
 
Tides and Currents Weather Stations Pressure Air Temp Water Temp Dewpoint Dewpoint Depression Visibility Wind Speed Wind Dir Waves Ship Positions

Carnival Victory

Operator: Carnival Cruise Lines

Last reported at 2020-Mar-12 21:22 UTC. Time now 2020-Apr-02 22:09 UTC.
Position N 36°31' W 006°15'.
Warning: this ship's position is 21 days out of date.

Type: Passenger vessel. MMSI: 355263000.

Date/timePositionNaut miles runAvg speedWind from/ knotsBaromVisibWave heightAir tempDewpointWater temp
2020-Mar-12 21:22N 36°31' W 006°15'0 0.0
2020-Mar-12 20:55N 36°31' W 006°15'0 0.0
2020-Mar-12 20:13N 36°31' W 006°15'0 0.1
2020-Mar-12 11:59N 36°31' W 006°15'23 7.5
2020-Mar-12 08:53N 36°31' W 006°44'3122.2
2020-Mar-12 07:30N 36°29' W 007°23'2422.1
2020-Mar-12 06:26N 36°27' W 007°52'1022.3
2020-Mar-12 06:00N 36°27' W 008°04'1222.2
2020-Mar-12 05:29N 36°26' W 008°18'3221.8
2020-Mar-12 04:01N 36°23' W 008°58'3321.9
2020-Mar-12 02:31N 36°22' W 009°39'3321.8
2020-Mar-12 01:00N 36°23' W 010°19'3322.0
2020-Mar-11 23:30N 36°23' W 011°00'1121.6
2020-Mar-11 23:00N 36°22' W 011°14'2521.6
2020-Mar-11 21:50N 36°21' W 011°45'7721.3
2020-Mar-11 18:12N 36°20' W 013°21'7020.8
2020-Mar-11 14:51N 36°16' W 014°48'45821.5
2020-Mar-10 17:35N 35°52' W 024°13'  
2020-Mar-05 05:16N 28°22' W 079°12'2821.9
2020-Mar-05 04:00N 28°22' W 079°43'4618.4
2020-Mar-05 01:30N 28°25' W 080°35'2 0.1
2020-Mar-04 09:50N 28°25' W 080°37'0 0.0
2020-Mar-04 02:59N 28°25' W 080°37'0 0.0
2020-Mar-04 00:56N 28°25' W 080°37'0 0.0
2020-Mar-03 18:17N 28°25' W 080°37'0 0.0
2020-Mar-03 17:50N 28°25' W 080°37'91 6.1
2020-Mar-03 02:56N 27°04' W 079°51'1125.5
2020-Mar-03 02:29N 26°53' W 079°47'2525.2
2020-Mar-03 01:30N 26°28' W 079°48'1325.2
2020-Mar-03 01:00N 26°16' W 079°50'2424.2
2020-Mar-03 00:01N 25°53' W 079°58'917.6
2020-Mar-02 23:30N 25°46' W 080°05'5 3.1
2020-Mar-02 21:58N 25°47' W 080°10'  
Track history (hours):
 
Tides and Currents Weather Stations Pressure Air Temp Water Temp Dewpoint Dewpoint Depression Visibility Wind Speed Wind Dir Waves Ship Positions

Carnival Victory

Operator: Carnival Cruise Lines

Last reported at 2020-Mar-12 21:22 UTC. Time now 2020-Apr-02 22:09 UTC.
Position N 36°31' W 006°15'.
Warning: this ship's position is 21 days out of date.

Type: Passenger vessel. MMSI: 355263000.

Date/timePositionNaut miles runAvg speedWind from/ knotsBaromVisibWave heightAir tempDewpointWater temp
2020-Mar-12 21:22N 36°31' W 006°15'0 0.0
2020-Mar-12 20:55N 36°31' W 006°15'0 0.0
2020-Mar-12 20:13N 36°31' W 006°15'0 0.1
2020-Mar-12 11:59N 36°31' W 006°15'23 7.5
2020-Mar-12 08:53N 36°31' W 006°44'3122.2
2020-Mar-12 07:30N 36°29' W 007°23'2422.1
2020-Mar-12 06:26N 36°27' W 007°52'1022.3
2020-Mar-12 06:00N 36°27' W 008°04'1222.2
2020-Mar-12 05:29N 36°26' W 008°18'3221.8
2020-Mar-12 04:01N 36°23' W 008°58'3321.9
2020-Mar-12 02:31N 36°22' W 009°39'3321.8
2020-Mar-12 01:00N 36°23' W 010°19'3322.0
2020-Mar-11 23:30N 36°23' W 011°00'1121.6
2020-Mar-11 23:00N 36°22' W 011°14'2521.6
2020-Mar-11 21:50N 36°21' W 011°45'7721.3
2020-Mar-11 18:12N 36°20' W 013°21'7020.8
2020-Mar-11 14:51N 36°16' W 014°48'45821.5
2020-Mar-10 17:35N 35°52' W 024°13'  
2020-Mar-05 05:16N 28°22' W 079°12'2821.9
2020-Mar-05 04:00N 28°22' W 079°43'4618.4
2020-Mar-05 01:30N 28°25' W 080°35'2 0.1
2020-Mar-04 09:50N 28°25' W 080°37'0 0.0
2020-Mar-04 02:59N 28°25' W 080°37'0 0.0
2020-Mar-04 00:56N 28°25' W 080°37'0 0.0
2020-Mar-03 18:17N 28°25' W 080°37'0 0.0
2020-Mar-03 17:50N 28°25' W 080°37'91 6.1
2020-Mar-03 02:56N 27°04' W 079°51'1125.5
2020-Mar-03 02:29N 26°53' W 079°47'2525.2
2020-Mar-03 01:30N 26°28' W 079°48'1325.2
2020-Mar-03 01:00N 26°16' W 079°50'2424.2
2020-Mar-03 00:01N 25°53' W 079°58'917.6
2020-Mar-02 23:30N 25°46' W 080°05'5 3.1
2020-Mar-02 21:58N 25°47' W 080°10'  

Dump ship's entire track history